sensor_id;sensor_type;location;lat;lon;timestamp;P1;durP1;ratioP1;P2;durP2;ratioP2
10134;SDS011;5107;48.850;8.924;2023-03-04T00:01:40;29.03;;;14.17;;
10134;SDS011;5107;48.850;8.924;2023-03-04T00:04:07;32.90;;;14.47;;
10134;SDS011;5107;48.850;8.924;2023-03-04T00:06:35;26.87;;;13.80;;
10134;SDS011;5107;48.850;8.924;2023-03-04T00:09:03;28.10;;;14.50;;
10134;SDS011;5107;48.850;8.924;2023-03-04T00:11:30;26.47;;;13.50;;
10134;SDS011;5107;48.850;8.924;2023-03-04T00:13:57;27.47;;;14.10;;
10134;SDS011;5107;48.850;8.924;2023-03-04T00:16:25;28.50;;;14.17;;
10134;SDS011;5107;48.850;8.924;2023-03-04T00:18:52;25.93;;;13.63;;
10134;SDS011;5107;48.850;8.924;2023-03-04T00:21:20;30.23;;;14.27;;
10134;SDS011;5107;48.850;8.924;2023-03-04T00:23:49;28.20;;;13.97;;
10134;SDS011;5107;48.850;8.924;2023-03-04T00:26:17;25.23;;;13.17;;
10134;SDS011;5107;48.850;8.924;2023-03-04T00:28:44;26.10;;;13.13;;
10134;SDS011;5107;48.850;8.924;2023-03-04T00:31:11;25.67;;;13.63;;
10134;SDS011;5107;48.850;8.924;2023-03-04T00:33:38;26.60;;;12.63;;
10134;SDS011;5107;48.850;8.924;2023-03-04T00:36:08;25.33;;;13.17;;
10134;SDS011;5107;48.850;8.924;2023-03-04T00:38:35;26.63;;;13.87;;
10134;SDS011;5107;48.850;8.924;2023-03-04T00:41:04;25.33;;;13.67;;
10134;SDS011;5107;48.850;8.924;2023-03-04T00:43:32;25.03;;;12.97;;
10134;SDS011;5107;48.850;8.924;2023-03-04T00:45:59;25.50;;;13.57;;
10134;SDS011;5107;48.850;8.924;2023-03-04T00:48:28;22.33;;;12.17;;
10134;SDS011;5107;48.850;8.924;2023-03-04T00:50:55;26.93;;;12.77;;
10134;SDS011;5107;48.850;8.924;2023-03-04T00:53:22;26.70;;;12.80;;
10134;SDS011;5107;48.850;8.924;2023-03-04T00:55:49;23.87;;;12.80;;
10134;SDS011;5107;48.850;8.924;2023-03-04T00:58:18;23.53;;;12.43;;
10134;SDS011;5107;48.850;8.924;2023-03-04T01:00:45;23.57;;;12.07;;
10134;SDS011;5107;48.850;8.924;2023-03-04T01:03:12;26.13;;;13.03;;
10134;SDS011;5107;48.850;8.924;2023-03-04T01:05:39;24.13;;;12.57;;
10134;SDS011;5107;48.850;8.924;2023-03-04T01:08:06;25.50;;;12.87;;
10134;SDS011;5107;48.850;8.924;2023-03-04T01:10:33;29.63;;;12.90;;
10134;SDS011;5107;48.850;8.924;2023-03-04T01:13:01;24.67;;;11.50;;
10134;SDS011;5107;48.850;8.924;2023-03-04T01:15:29;24.53;;;12.33;;
10134;SDS011;5107;48.850;8.924;2023-03-04T01:17:56;26.40;;;12.53;;
10134;SDS011;5107;48.850;8.924;2023-03-04T01:20:23;24.33;;;12.70;;
10134;SDS011;5107;48.850;8.924;2023-03-04T01:22:50;21.90;;;11.70;;
10134;SDS011;5107;48.850;8.924;2023-03-04T01:25:17;24.83;;;12.63;;
10134;SDS011;5107;48.850;8.924;2023-03-04T01:27:45;26.83;;;13.33;;
10134;SDS011;5107;48.850;8.924;2023-03-04T01:30:12;28.37;;;14.23;;
10134;SDS011;5107;48.850;8.924;2023-03-04T01:32:41;28.17;;;14.13;;
10134;SDS011;5107;48.850;8.924;2023-03-04T01:35:08;28.60;;;13.63;;
10134;SDS011;5107;48.850;8.924;2023-03-04T01:37:35;27.40;;;13.80;;
10134;SDS011;5107;48.850;8.924;2023-03-04T01:40:03;30.77;;;13.40;;
10134;SDS011;5107;48.850;8.924;2023-03-04T01:42:32;28.57;;;12.83;;
10134;SDS011;5107;48.850;8.924;2023-03-04T01:45:01;28.43;;;13.50;;
10134;SDS011;5107;48.850;8.924;2023-03-04T01:47:29;27.47;;;13.23;;
10134;SDS011;5107;48.850;8.924;2023-03-04T01:50:00;29.60;;;14.47;;
10134;SDS011;5107;48.850;8.924;2023-03-04T01:52:36;23.30;;;12.13;;
10134;SDS011;5107;48.850;8.924;2023-03-04T01:55:09;23.90;;;12.43;;
10134;SDS011;5107;48.850;8.924;2023-03-04T01:57:41;26.20;;;13.57;;
10134;SDS011;5107;48.850;8.924;2023-03-04T02:00:21;22.67;;;11.90;;
10134;SDS011;5107;48.850;8.924;2023-03-04T02:02:52;22.50;;;12.03;;
10134;SDS011;5107;48.850;8.924;2023-03-04T02:05:25;26.60;;;12.73;;
10134;SDS011;5107;48.850;8.924;2023-03-04T02:07:52;24.37;;;11.93;;
10134;SDS011;5107;48.850;8.924;2023-03-04T02:10:21;31.00;;;13.87;;
10134;SDS011;5107;48.850;8.924;2023-03-04T02:12:48;24.17;;;12.13;;
10134;SDS011;5107;48.850;8.924;2023-03-04T02:15:16;28.80;;;13.60;;
10134;SDS011;5107;48.850;8.924;2023-03-04T02:17:44;26.60;;;13.13;;
10134;SDS011;5107;48.850;8.924;2023-03-04T02:20:14;24.50;;;12.50;;
10134;SDS011;5107;48.850;8.924;2023-03-04T02:23:00;25.37;;;12.60;;
10134;SDS011;5107;48.850;8.924;2023-03-04T02:25:35;26.07;;;12.63;;
10134;SDS011;5107;48.850;8.924;2023-03-04T02:28:11;28.63;;;13.47;;
10134;SDS011;5107;48.850;8.924;2023-03-04T02:30:39;28.50;;;13.60;;
10134;SDS011;5107;48.850;8.924;2023-03-04T02:33:09;26.83;;;13.37;;
10134;SDS011;5107;48.850;8.924;2023-03-04T02:35:41;32.20;;;13.70;;
10134;SDS011;5107;48.850;8.924;2023-03-04T02:38:08;25.67;;;13.63;;
10134;SDS011;5107;48.850;8.924;2023-03-04T02:40:36;29.30;;;13.23;;
10134;SDS011;5107;48.850;8.924;2023-03-04T02:43:08;27.40;;;12.83;;
10134;SDS011;5107;48.850;8.924;2023-03-04T02:45:39;28.60;;;13.57;;
10134;SDS011;5107;48.850;8.924;2023-03-04T02:48:09;28.83;;;12.83;;
10134;SDS011;5107;48.850;8.924;2023-03-04T02:50:38;29.17;;;13.77;;
10134;SDS011;5107;48.850;8.924;2023-03-04T02:53:11;28.97;;;13.10;;
10134;SDS011;5107;48.850;8.924;2023-03-04T02:55:39;27.90;;;13.87;;
10134;SDS011;5107;48.850;8.924;2023-03-04T02:58:08;25.63;;;13.33;;
10134;SDS011;5107;48.850;8.924;2023-03-04T03:00:38;28.27;;;14.07;;
10134;SDS011;5107;48.850;8.924;2023-03-04T03:03:06;48.97;;;22.40;;
10134;SDS011;5107;48.850;8.924;2023-03-04T03:05:34;28.17;;;14.17;;
10134;SDS011;5107;48.850;8.924;2023-03-04T03:08:02;29.87;;;14.73;;
10134;SDS011;5107;48.850;8.924;2023-03-04T03:10:31;32.33;;;14.03;;
10134;SDS011;5107;48.850;8.924;2023-03-04T03:12:58;26.80;;;13.23;;
10134;SDS011;5107;48.850;8.924;2023-03-04T03:15:26;29.83;;;14.00;;
10134;SDS011;5107;48.850;8.924;2023-03-04T03:17:55;29.57;;;13.67;;
10134;SDS011;5107;48.850;8.924;2023-03-04T03:20:22;29.63;;;14.00;;
10134;SDS011;5107;48.850;8.924;2023-03-04T03:22:50;33.40;;;14.77;;
10134;SDS011;5107;48.850;8.924;2023-03-04T03:25:17;31.47;;;14.43;;
10134;SDS011;5107;48.850;8.924;2023-03-04T03:27:44;31.17;;;14.67;;
10134;SDS011;5107;48.850;8.924;2023-03-04T03:30:13;31.73;;;14.77;;
10134;SDS011;5107;48.850;8.924;2023-03-04T03:32:43;33.47;;;14.30;;
10134;SDS011;5107;48.850;8.924;2023-03-04T03:35:12;30.97;;;14.40;;
10134;SDS011;5107;48.850;8.924;2023-03-04T03:37:39;32.07;;;14.27;;
10134;SDS011;5107;48.850;8.924;2023-03-04T03:40:07;31.60;;;14.10;;
10134;SDS011;5107;48.850;8.924;2023-03-04T03:42:36;30.77;;;14.93;;
10134;SDS011;5107;48.850;8.924;2023-03-04T03:45:03;31.90;;;13.87;;
10134;SDS011;5107;48.850;8.924;2023-03-04T03:47:31;29.43;;;14.00;;
10134;SDS011;5107;48.850;8.924;2023-03-04T03:49:58;33.00;;;15.20;;
10134;SDS011;5107;48.850;8.924;2023-03-04T03:52:26;33.47;;;13.87;;
10134;SDS011;5107;48.850;8.924;2023-03-04T03:54:54;32.37;;;14.73;;
10134;SDS011;5107;48.850;8.924;2023-03-04T03:57:23;33.73;;;15.00;;
10134;SDS011;5107;48.850;8.924;2023-03-04T03:59:50;36.00;;;15.57;;
10134;SDS011;5107;48.850;8.924;2023-03-04T04:02:20;32.17;;;14.23;;
10134;SDS011;5107;48.850;8.924;2023-03-04T04:04:47;32.70;;;14.30;;
10134;SDS011;5107;48.850;8.924;2023-03-04T04:07:14;31.03;;;15.80;;
10134;SDS011;5107;48.850;8.924;2023-03-04T04:09:43;31.60;;;14.90;;
10134;SDS011;5107;48.850;8.924;2023-03-04T04:12:12;30.73;;;14.40;;
10134;SDS011;5107;48.850;8.924;2023-03-04T04:14:43;33.07;;;15.13;;
10134;SDS011;5107;48.850;8.924;2023-03-04T04:17:11;38.50;;;16.23;;
10134;SDS011;5107;48.850;8.924;2023-03-04T04:19:39;36.57;;;15.97;;
10134;SDS011;5107;48.850;8.924;2023-03-04T04:22:07;35.40;;;15.20;;
10134;SDS011;5107;48.850;8.924;2023-03-04T04:24:38;36.73;;;16.43;;
10134;SDS011;5107;48.850;8.924;2023-03-04T04:27:06;39.37;;;15.57;;
10134;SDS011;5107;48.850;8.924;2023-03-04T04:29:33;39.97;;;16.70;;
10134;SDS011;5107;48.850;8.924;2023-03-04T04:32:00;37.57;;;14.50;;
10134;SDS011;5107;48.850;8.924;2023-03-04T04:34:28;36.67;;;15.40;;
10134;SDS011;5107;48.850;8.924;2023-03-04T04:36:55;39.67;;;16.30;;
10134;SDS011;5107;48.850;8.924;2023-03-04T04:39:22;37.50;;;15.83;;
10134;SDS011;5107;48.850;8.924;2023-03-04T04:41:49;39.53;;;16.97;;
10134;SDS011;5107;48.850;8.924;2023-03-04T04:44:17;37.97;;;15.57;;
10134;SDS011;5107;48.850;8.924;2023-03-04T04:46:44;37.77;;;16.30;;
10134;SDS011;5107;48.850;8.924;2023-03-04T04:49:11;41.77;;;15.90;;
10134;SDS011;5107;48.850;8.924;2023-03-04T04:51:38;33.27;;;15.53;;
10134;SDS011;5107;48.850;8.924;2023-03-04T04:54:05;43.40;;;16.27;;
10134;SDS011;5107;48.850;8.924;2023-03-04T04:56:34;39.63;;;16.77;;
10134;SDS011;5107;48.850;8.924;2023-03-04T04:59:02;38.80;;;16.30;;
10134;SDS011;5107;48.850;8.924;2023-03-04T05:01:33;48.37;;;18.50;;
10134;SDS011;5107;48.850;8.924;2023-03-04T05:04:00;40.37;;;17.07;;
10134;SDS011;5107;48.850;8.924;2023-03-04T05:06:27;43.10;;;18.07;;
10134;SDS011;5107;48.850;8.924;2023-03-04T05:08:54;44.07;;;18.63;;
10134;SDS011;5107;48.850;8.924;2023-03-04T05:11:21;44.80;;;17.57;;
10134;SDS011;5107;48.850;8.924;2023-03-04T05:13:49;43.37;;;17.87;;
10134;SDS011;5107;48.850;8.924;2023-03-04T05:16:16;37.17;;;15.27;;
10134;SDS011;5107;48.850;8.924;2023-03-04T05:18:45;44.17;;;17.37;;
10134;SDS011;5107;48.850;8.924;2023-03-04T05:21:12;40.90;;;16.80;;
10134;SDS011;5107;48.850;8.924;2023-03-04T05:23:40;46.63;;;18.10;;
10134;SDS011;5107;48.850;8.924;2023-03-04T05:26:10;49.33;;;17.50;;
10134;SDS011;5107;48.850;8.924;2023-03-04T05:28:40;48.50;;;18.93;;
10134;SDS011;5107;48.850;8.924;2023-03-04T05:31:07;49.83;;;18.43;;
10134;SDS011;5107;48.850;8.924;2023-03-04T05:33:34;44.73;;;18.63;;
10134;SDS011;5107;48.850;8.924;2023-03-04T05:36:06;51.97;;;19.77;;
10134;SDS011;5107;48.850;8.924;2023-03-04T05:38:34;50.53;;;19.03;;
10134;SDS011;5107;48.850;8.924;2023-03-04T05:41:02;42.53;;;18.47;;
10134;SDS011;5107;48.850;8.924;2023-03-04T05:43:31;46.17;;;17.73;;
10134;SDS011;5107;48.850;8.924;2023-03-04T05:46:00;43.43;;;17.20;;
10134;SDS011;5107;48.850;8.924;2023-03-04T05:48:28;45.83;;;18.80;;
10134;SDS011;5107;48.850;8.924;2023-03-04T05:50:57;47.57;;;18.03;;
10134;SDS011;5107;48.850;8.924;2023-03-04T05:53:29;48.07;;;17.40;;
10134;SDS011;5107;48.850;8.924;2023-03-04T05:55:56;41.37;;;17.90;;
10134;SDS011;5107;48.850;8.924;2023-03-04T05:58:24;41.53;;;17.40;;
10134;SDS011;5107;48.850;8.924;2023-03-04T06:00:52;44.37;;;17.43;;
10134;SDS011;5107;48.850;8.924;2023-03-04T06:03:20;39.73;;;15.80;;
10134;SDS011;5107;48.850;8.924;2023-03-04T06:05:48;36.13;;;17.30;;
10134;SDS011;5107;48.850;8.924;2023-03-04T06:08:15;43.13;;;17.63;;
10134;SDS011;5107;48.850;8.924;2023-03-04T06:10:43;48.37;;;17.87;;
10134;SDS011;5107;48.850;8.924;2023-03-04T06:13:10;42.30;;;17.47;;
10134;SDS011;5107;48.850;8.924;2023-03-04T06:15:38;43.47;;;16.80;;
10134;SDS011;5107;48.850;8.924;2023-03-04T06:18:05;45.60;;;17.53;;
10134;SDS011;5107;48.850;8.924;2023-03-04T06:20:33;41.93;;;17.60;;
10134;SDS011;5107;48.850;8.924;2023-03-04T06:23:01;38.57;;;16.67;;
10134;SDS011;5107;48.850;8.924;2023-03-04T06:25:28;42.17;;;18.33;;
10134;SDS011;5107;48.850;8.924;2023-03-04T06:27:57;44.57;;;18.10;;
10134;SDS011;5107;48.850;8.924;2023-03-04T06:30:24;38.43;;;16.80;;
10134;SDS011;5107;48.850;8.924;2023-03-04T06:32:51;45.00;;;16.50;;
10134;SDS011;5107;48.850;8.924;2023-03-04T06:35:18;41.57;;;17.33;;
10134;SDS011;5107;48.850;8.924;2023-03-04T06:37:45;43.43;;;17.30;;
10134;SDS011;5107;48.850;8.924;2023-03-04T06:40:12;43.73;;;17.87;;
10134;SDS011;5107;48.850;8.924;2023-03-04T06:42:40;45.33;;;17.73;;
10134;SDS011;5107;48.850;8.924;2023-03-04T06:45:09;43.17;;;17.73;;
10134;SDS011;5107;48.850;8.924;2023-03-04T06:47:37;37.77;;;16.57;;
10134;SDS011;5107;48.850;8.924;2023-03-04T06:50:04;39.57;;;16.57;;
10134;SDS011;5107;48.850;8.924;2023-03-04T06:52:32;40.53;;;17.20;;
10134;SDS011;5107;48.850;8.924;2023-03-04T06:55:01;39.97;;;16.30;;
10134;SDS011;5107;48.850;8.924;2023-03-04T06:57:32;42.53;;;17.63;;
10134;SDS011;5107;48.850;8.924;2023-03-04T06:59:59;45.20;;;18.20;;
10134;SDS011;5107;48.850;8.924;2023-03-04T07:02:28;42.93;;;17.60;;
10134;SDS011;5107;48.850;8.924;2023-03-04T07:04:55;39.80;;;16.80;;
10134;SDS011;5107;48.850;8.924;2023-03-04T07:07:22;40.23;;;16.97;;
10134;SDS011;5107;48.850;8.924;2023-03-04T07:09:51;39.30;;;17.03;;
10134;SDS011;5107;48.850;8.924;2023-03-04T07:12:18;41.10;;;17.80;;
10134;SDS011;5107;48.850;8.924;2023-03-04T07:14:45;36.33;;;16.20;;
10134;SDS011;5107;48.850;8.924;2023-03-04T07:17:15;43.57;;;18.73;;
10134;SDS011;5107;48.850;8.924;2023-03-04T07:19:44;43.03;;;17.73;;
10134;SDS011;5107;48.850;8.924;2023-03-04T07:22:11;43.13;;;18.77;;
10134;SDS011;5107;48.850;8.924;2023-03-04T07:24:38;43.33;;;17.70;;
10134;SDS011;5107;48.850;8.924;2023-03-04T07:27:05;41.17;;;17.77;;
10134;SDS011;5107;48.850;8.924;2023-03-04T07:29:32;34.77;;;16.47;;
10134;SDS011;5107;48.850;8.924;2023-03-04T07:31:59;34.93;;;16.30;;
10134;SDS011;5107;48.850;8.924;2023-03-04T07:34:26;38.53;;;15.30;;
10134;SDS011;5107;48.850;8.924;2023-03-04T07:36:54;33.57;;;15.63;;
10134;SDS011;5107;48.850;8.924;2023-03-04T07:39:21;34.33;;;15.83;;
10134;SDS011;5107;48.850;8.924;2023-03-04T07:41:48;35.07;;;17.10;;
10134;SDS011;5107;48.850;8.924;2023-03-04T07:44:16;33.00;;;15.07;;
10134;SDS011;5107;48.850;8.924;2023-03-04T07:46:43;36.43;;;14.80;;
10134;SDS011;5107;48.850;8.924;2023-03-04T07:49:10;30.00;;;13.20;;
10134;SDS011;5107;48.850;8.924;2023-03-04T07:51:38;34.37;;;16.20;;
10134;SDS011;5107;48.850;8.924;2023-03-04T07:54:07;34.30;;;15.60;;
10134;SDS011;5107;48.850;8.924;2023-03-04T07:56:35;30.53;;;14.77;;
10134;SDS011;5107;48.850;8.924;2023-03-04T07:59:02;29.93;;;13.87;;
10134;SDS011;5107;48.850;8.924;2023-03-04T08:01:30;33.13;;;15.37;;
10134;SDS011;5107;48.850;8.924;2023-03-04T08:03:59;32.40;;;14.43;;
10134;SDS011;5107;48.850;8.924;2023-03-04T08:06:27;27.23;;;13.73;;
10134;SDS011;5107;48.850;8.924;2023-03-04T08:08:55;32.07;;;15.20;;
10134;SDS011;5107;48.850;8.924;2023-03-04T08:11:26;29.17;;;14.07;;
10134;SDS011;5107;48.850;8.924;2023-03-04T08:13:55;31.03;;;14.20;;
10134;SDS011;5107;48.850;8.924;2023-03-04T08:16:25;24.40;;;12.90;;
10134;SDS011;5107;48.850;8.924;2023-03-04T08:18:52;26.40;;;13.20;;
10134;SDS011;5107;48.850;8.924;2023-03-04T08:21:22;30.13;;;13.30;;
10134;SDS011;5107;48.850;8.924;2023-03-04T08:23:51;25.83;;;12.27;;
10134;SDS011;5107;48.850;8.924;2023-03-04T08:26:19;33.60;;;14.60;;
10134;SDS011;5107;48.850;8.924;2023-03-04T08:28:51;29.93;;;13.53;;
10134;SDS011;5107;48.850;8.924;2023-03-04T08:31:20;28.40;;;13.90;;
10134;SDS011;5107;48.850;8.924;2023-03-04T08:33:47;28.17;;;13.23;;
10134;SDS011;5107;48.850;8.924;2023-03-04T08:36:15;28.27;;;13.93;;
10134;SDS011;5107;48.850;8.924;2023-03-04T08:38:42;26.23;;;13.80;;
10134;SDS011;5107;48.850;8.924;2023-03-04T08:41:09;29.07;;;14.53;;
10134;SDS011;5107;48.850;8.924;2023-03-04T08:43:36;26.30;;;13.97;;
10134;SDS011;5107;48.850;8.924;2023-03-04T08:46:05;29.40;;;15.20;;
10134;SDS011;5107;48.850;8.924;2023-03-04T08:48:33;26.30;;;14.33;;
10134;SDS011;5107;48.850;8.924;2023-03-04T08:51:00;31.83;;;14.73;;
10134;SDS011;5107;48.850;8.924;2023-03-04T08:53:31;28.37;;;14.37;;
10134;SDS011;5107;48.850;8.924;2023-03-04T08:55:59;29.33;;;14.70;;
10134;SDS011;5107;48.850;8.924;2023-03-04T08:58:26;30.07;;;15.97;;
10134;SDS011;5107;48.850;8.924;2023-03-04T09:00:53;32.03;;;15.83;;
10134;SDS011;5107;48.850;8.924;2023-03-04T09:03:21;31.47;;;16.47;;
10134;SDS011;5107;48.850;8.924;2023-03-04T09:05:48;32.57;;;16.67;;
10134;SDS011;5107;48.850;8.924;2023-03-04T09:08:15;31.10;;;15.77;;
10134;SDS011;5107;48.850;8.924;2023-03-04T09:10:42;31.53;;;16.43;;
10134;SDS011;5107;48.850;8.924;2023-03-04T09:13:10;35.10;;;16.47;;
10134;SDS011;5107;48.850;8.924;2023-03-04T09:15:42;31.53;;;16.07;;
10134;SDS011;5107;48.850;8.924;2023-03-04T09:18:10;32.13;;;15.90;;
10134;SDS011;5107;48.850;8.924;2023-03-04T09:20:39;34.37;;;16.97;;
10134;SDS011;5107;48.850;8.924;2023-03-04T09:23:07;31.47;;;16.17;;
10134;SDS011;5107;48.850;8.924;2023-03-04T09:25:34;33.80;;;17.03;;
10134;SDS011;5107;48.850;8.924;2023-03-04T09:28:02;35.20;;;17.60;;
10134;SDS011;5107;48.850;8.924;2023-03-04T09:30:30;35.97;;;16.80;;
10134;SDS011;5107;48.850;8.924;2023-03-04T09:32:57;31.57;;;16.57;;
10134;SDS011;5107;48.850;8.924;2023-03-04T09:35:24;33.37;;;16.90;;
10134;SDS011;5107;48.850;8.924;2023-03-04T09:37:55;35.90;;;17.37;;
10134;SDS011;5107;48.850;8.924;2023-03-04T09:40:23;37.77;;;17.80;;
10134;SDS011;5107;48.850;8.924;2023-03-04T09:42:55;37.27;;;18.60;;
10134;SDS011;5107;48.850;8.924;2023-03-04T09:45:28;37.87;;;17.20;;
10134;SDS011;5107;48.850;8.924;2023-03-04T09:48:02;32.80;;;17.50;;
10134;SDS011;5107;48.850;8.924;2023-03-04T09:50:30;36.13;;;18.03;;
10134;SDS011;5107;48.850;8.924;2023-03-04T09:53:04;39.63;;;18.87;;
10134;SDS011;5107;48.850;8.924;2023-03-04T09:55:41;35.90;;;18.73;;
10134;SDS011;5107;48.850;8.924;2023-03-04T09:58:15;38.47;;;19.43;;
10134;SDS011;5107;48.850;8.924;2023-03-04T10:01:00;37.00;;;19.90;;
10134;SDS011;5107;48.850;8.924;2023-03-04T10:03:39;36.13;;;19.07;;
10134;SDS011;5107;48.850;8.924;2023-03-04T10:06:14;53.10;;;24.47;;
10134;SDS011;5107;48.850;8.924;2023-03-04T10:08:46;45.53;;;22.27;;
10134;SDS011;5107;48.850;8.924;2023-03-04T10:11:20;49.07;;;24.00;;
10134;SDS011;5107;48.850;8.924;2023-03-04T10:13:55;45.27;;;21.67;;
10134;SDS011;5107;48.850;8.924;2023-03-04T10:16:30;43.80;;;22.07;;
10134;SDS011;5107;48.850;8.924;2023-03-04T10:19:08;48.87;;;23.37;;
10134;SDS011;5107;48.850;8.924;2023-03-04T10:21:53;48.63;;;22.33;;
10134;SDS011;5107;48.850;8.924;2023-03-04T10:24:24;45.23;;;22.17;;
10134;SDS011;5107;48.850;8.924;2023-03-04T10:26:57;41.40;;;21.03;;
10134;SDS011;5107;48.850;8.924;2023-03-04T10:29:29;40.03;;;21.20;;
10134;SDS011;5107;48.850;8.924;2023-03-04T10:31:59;39.93;;;19.60;;
10134;SDS011;5107;48.850;8.924;2023-03-04T10:34:26;43.97;;;22.20;;
10134;SDS011;5107;48.850;8.924;2023-03-04T10:36:54;40.23;;;21.20;;
10134;SDS011;5107;48.850;8.924;2023-03-04T10:39:27;39.73;;;20.80;;
10134;SDS011;5107;48.850;8.924;2023-03-04T10:41:58;42.67;;;21.47;;
10134;SDS011;5107;48.850;8.924;2023-03-04T10:44:27;41.30;;;20.60;;
10134;SDS011;5107;48.850;8.924;2023-03-04T10:46:56;42.33;;;21.33;;
10134;SDS011;5107;48.850;8.924;2023-03-04T10:49:24;42.20;;;21.73;;
10134;SDS011;5107;48.850;8.924;2023-03-04T10:51:54;39.00;;;20.10;;
10134;SDS011;5107;48.850;8.924;2023-03-04T10:54:30;45.23;;;21.30;;
10134;SDS011;5107;48.850;8.924;2023-03-04T10:57:05;36.93;;;19.77;;
10134;SDS011;5107;48.850;8.924;2023-03-04T10:59:42;39.10;;;19.73;;
10134;SDS011;5107;48.850;8.924;2023-03-04T11:02:21;39.80;;;20.30;;
10134;SDS011;5107;48.850;8.924;2023-03-04T11:04:56;39.60;;;19.57;;
10134;SDS011;5107;48.850;8.924;2023-03-04T11:07:35;45.00;;;20.93;;
10134;SDS011;5107;48.850;8.924;2023-03-04T11:10:08;38.93;;;20.33;;
10134;SDS011;5107;48.850;8.924;2023-03-04T11:12:36;39.60;;;20.50;;
10134;SDS011;5107;48.850;8.924;2023-03-04T11:15:14;36.43;;;18.93;;
10134;SDS011;5107;48.850;8.924;2023-03-04T11:17:52;33.90;;;18.37;;
10134;SDS011;5107;48.850;8.924;2023-03-04T11:20:26;35.50;;;19.30;;
10134;SDS011;5107;48.850;8.924;2023-03-04T11:22:59;40.60;;;19.17;;
10134;SDS011;5107;48.850;8.924;2023-03-04T11:25:33;35.30;;;18.37;;
10134;SDS011;5107;48.850;8.924;2023-03-04T11:28:05;40.40;;;19.13;;
10134;SDS011;5107;48.850;8.924;2023-03-04T11:30:41;39.67;;;19.47;;
10134;SDS011;5107;48.850;8.924;2023-03-04T11:33:13;38.03;;;19.17;;
10134;SDS011;5107;48.850;8.924;2023-03-04T11:35:53;37.33;;;18.10;;
10134;SDS011;5107;48.850;8.924;2023-03-04T11:38:31;34.73;;;18.27;;
10134;SDS011;5107;48.850;8.924;2023-03-04T11:41:08;32.93;;;17.97;;
10134;SDS011;5107;48.850;8.924;2023-03-04T11:43:41;30.83;;;17.60;;
10134;SDS011;5107;48.850;8.924;2023-03-04T11:46:25;34.03;;;18.70;;
10134;SDS011;5107;48.850;8.924;2023-03-04T11:52:26;35.67;;;18.13;;
10134;SDS011;5107;48.850;8.924;2023-03-04T11:55:12;32.43;;;17.17;;
10134;SDS011;5107;48.850;8.924;2023-03-04T11:57:56;37.37;;;18.13;;
10134;SDS011;5107;48.850;8.924;2023-03-04T12:00:37;35.03;;;18.27;;
10134;SDS011;5107;48.850;8.924;2023-03-04T12:03:14;34.50;;;17.60;;
10134;SDS011;5107;48.850;8.924;2023-03-04T12:06:11;32.87;;;18.03;;
10134;SDS011;5107;48.850;8.924;2023-03-04T12:08:52;42.10;;;23.47;;
10134;SDS011;5107;48.850;8.924;2023-03-04T12:11:35;36.27;;;19.87;;
10134;SDS011;5107;48.850;8.924;2023-03-04T12:14:17;36.17;;;18.63;;
10134;SDS011;5107;48.850;8.924;2023-03-04T12:17:06;36.07;;;18.43;;
10134;SDS011;5107;48.850;8.924;2023-03-04T12:19:59;45.17;;;20.93;;
10134;SDS011;5107;48.850;8.924;2023-03-04T12:22:50;41.67;;;20.20;;
10134;SDS011;5107;48.850;8.924;2023-03-04T12:25:28;43.20;;;21.40;;
10134;SDS011;5107;48.850;8.924;2023-03-04T12:28:21;41.47;;;19.83;;
10134;SDS011;5107;48.850;8.924;2023-03-04T12:31:12;42.37;;;20.87;;
10134;SDS011;5107;48.850;8.924;2023-03-04T12:33:58;41.13;;;20.07;;
10134;SDS011;5107;48.850;8.924;2023-03-04T12:37:10;42.13;;;20.67;;
10134;SDS011;5107;48.850;8.924;2023-03-04T12:39:56;41.83;;;21.03;;
10134;SDS011;5107;48.850;8.924;2023-03-04T12:42:48;44.33;;;19.93;;
10134;SDS011;5107;48.850;8.924;2023-03-04T12:45:30;45.63;;;21.53;;
10134;SDS011;5107;48.850;8.924;2023-03-04T12:48:13;43.20;;;20.63;;
10134;SDS011;5107;48.850;8.924;2023-03-04T12:50:55;48.07;;;19.67;;
10134;SDS011;5107;48.850;8.924;2023-03-04T12:53:46;42.10;;;19.37;;
10134;SDS011;5107;48.850;8.924;2023-03-04T12:56:35;35.77;;;17.70;;
10134;SDS011;5107;48.850;8.924;2023-03-04T12:59:09;39.47;;;18.10;;
10134;SDS011;5107;48.850;8.924;2023-03-04T13:01:44;36.70;;;18.93;;
10134;SDS011;5107;48.850;8.924;2023-03-04T13:04:23;34.37;;;17.70;;
10134;SDS011;5107;48.850;8.924;2023-03-04T13:07:07;32.50;;;15.53;;
10134;SDS011;5107;48.850;8.924;2023-03-04T13:09:42;30.37;;;15.47;;
10134;SDS011;5107;48.850;8.924;2023-03-04T13:12:17;29.60;;;15.13;;
10134;SDS011;5107;48.850;8.924;2023-03-04T13:17:57;30.17;;;14.83;;
10134;SDS011;5107;48.850;8.924;2023-03-04T13:20:36;32.47;;;15.37;;
10134;SDS011;5107;48.850;8.924;2023-03-04T13:31:57;29.17;;;15.00;;
10134;SDS011;5107;48.850;8.924;2023-03-04T13:34:46;31.77;;;15.37;;
10134;SDS011;5107;48.850;8.924;2023-03-04T13:37:32;33.23;;;14.47;;
10134;SDS011;5107;48.850;8.924;2023-03-04T13:43:17;30.57;;;16.10;;
10134;SDS011;5107;48.850;8.924;2023-03-04T13:45:53;31.70;;;15.70;;
10134;SDS011;5107;48.850;8.924;2023-03-04T13:48:29;35.10;;;16.07;;
10134;SDS011;5107;48.850;8.924;2023-03-04T13:51:00;28.27;;;15.33;;
10134;SDS011;5107;48.850;8.924;2023-03-04T13:53:31;29.87;;;14.90;;
10134;SDS011;5107;48.850;8.924;2023-03-04T13:56:21;33.47;;;16.90;;
10134;SDS011;5107;48.850;8.924;2023-03-04T13:59:09;30.70;;;15.47;;
10134;SDS011;5107;48.850;8.924;2023-03-04T14:01:56;38.97;;;17.20;;
10134;SDS011;5107;48.850;8.924;2023-03-04T14:04:27;35.63;;;15.93;;
10134;SDS011;5107;48.850;8.924;2023-03-04T14:06:58;40.63;;;16.43;;
10134;SDS011;5107;48.850;8.924;2023-03-04T14:09:29;34.40;;;15.77;;
10134;SDS011;5107;48.850;8.924;2023-03-04T14:11:58;32.73;;;15.70;;
10134;SDS011;5107;48.850;8.924;2023-03-04T14:14:29;33.30;;;15.13;;
10134;SDS011;5107;48.850;8.924;2023-03-04T14:17:02;36.00;;;16.30;;
10134;SDS011;5107;48.850;8.924;2023-03-04T14:19:32;36.27;;;16.27;;
10134;SDS011;5107;48.850;8.924;2023-03-04T14:22:18;31.87;;;14.83;;
10134;SDS011;5107;48.850;8.924;2023-03-04T14:24:57;29.03;;;15.07;;
10134;SDS011;5107;48.850;8.924;2023-03-04T14:27:27;33.80;;;16.07;;
10134;SDS011;5107;48.850;8.924;2023-03-04T14:29:57;34.93;;;14.63;;
10134;SDS011;5107;48.850;8.924;2023-03-04T14:32:26;41.07;;;15.33;;
10134;SDS011;5107;48.850;8.924;2023-03-04T14:34:55;34.97;;;16.67;;
10134;SDS011;5107;48.850;8.924;2023-03-04T14:37:29;33.57;;;15.63;;
10134;SDS011;5107;48.850;8.924;2023-03-04T14:40:09;38.93;;;15.03;;
10134;SDS011;5107;48.850;8.924;2023-03-04T14:42:46;31.33;;;15.83;;
10134;SDS011;5107;48.850;8.924;2023-03-04T14:45:17;37.07;;;16.47;;
10134;SDS011;5107;48.850;8.924;2023-03-04T14:47:44;35.83;;;15.70;;
10134;SDS011;5107;48.850;8.924;2023-03-04T14:50:13;32.87;;;15.53;;
10134;SDS011;5107;48.850;8.924;2023-03-04T14:52:44;39.90;;;15.73;;
10134;SDS011;5107;48.850;8.924;2023-03-04T14:55:21;32.40;;;15.63;;
10134;SDS011;5107;48.850;8.924;2023-03-04T14:57:50;34.17;;;15.90;;
10134;SDS011;5107;48.850;8.924;2023-03-04T15:00:24;31.70;;;15.53;;
10134;SDS011;5107;48.850;8.924;2023-03-04T15:02:57;33.13;;;16.73;;
10134;SDS011;5107;48.850;8.924;2023-03-04T15:05:27;31.67;;;15.57;;
10134;SDS011;5107;48.850;8.924;2023-03-04T15:07:57;35.37;;;15.33;;
10134;SDS011;5107;48.850;8.924;2023-03-04T15:10:28;36.73;;;16.27;;
10134;SDS011;5107;48.850;8.924;2023-03-04T15:12:59;32.60;;;14.57;;
10134;SDS011;5107;48.850;8.924;2023-03-04T15:18:15;35.73;;;15.63;;